createdAt,value
2023-05-25T00:00:15.852Z,11.30
2023-05-25T00:02:44.503Z,11.30
2023-05-25T00:05:12.303Z,11.30
2023-05-25T00:07:39.743Z,11.30
2023-05-25T00:10:07.575Z,11.30
2023-05-25T00:12:34.527Z,11.20
2023-05-25T00:15:01.564Z,11.20
2023-05-25T00:17:30.023Z,11.10
2023-05-25T00:19:58.231Z,11.10
2023-05-25T00:22:29.017Z,11.10
2023-05-25T00:24:56.120Z,11.10
2023-05-25T00:27:25.857Z,11.10
2023-05-25T00:29:52.762Z,11.10
2023-05-25T00:32:20.108Z,11.00
2023-05-25T00:34:47.334Z,10.90
2023-05-25T00:37:14.933Z,11.00
2023-05-25T00:39:41.905Z,10.90
2023-05-25T00:42:08.862Z,10.90
2023-05-25T00:44:35.708Z,10.80
2023-05-25T00:47:05.467Z,10.80
2023-05-25T00:49:35.986Z,10.70
2023-05-25T00:52:03.309Z,10.70
2023-05-25T00:54:30.245Z,10.60
2023-05-25T00:57:04.334Z,10.60
2023-05-25T00:59:43.666Z,10.60
2023-05-25T01:02:14.028Z,10.50
2023-05-25T01:04:45.344Z,10.50
2023-05-25T01:07:17.872Z,10.50
2023-05-25T01:09:45.842Z,10.50
2023-05-25T01:12:15.471Z,10.50
2023-05-25T01:14:43.275Z,10.50
2023-05-25T01:17:14.048Z,10.50
2023-05-25T01:19:41.452Z,10.40
2023-05-25T01:22:34.184Z,10.40
2023-05-25T01:25:23.571Z,10.40
2023-05-25T01:28:05.624Z,10.40
2023-05-25T01:30:34.401Z,10.30
2023-05-25T01:33:01.867Z,10.30
2023-05-25T01:35:29.598Z,10.30
2023-05-25T01:37:59.049Z,10.30
2023-05-25T01:40:27.025Z,10.20
2023-05-25T01:42:54.039Z,10.20
2023-05-25T01:45:21.196Z,10.20
2023-05-25T01:48:14.506Z,10.30
2023-05-25T01:51:09.056Z,10.20
2023-05-25T01:53:52.561Z,10.20
2023-05-25T01:56:21.551Z,10.10
2023-05-25T01:58:50.787Z,10.10
2023-05-25T02:01:19.550Z,10.10
2023-05-25T02:03:50.846Z,10.00
2023-05-25T02:06:17.854Z,10.00
2023-05-25T02:08:45.837Z,10.00
2023-05-25T02:11:14.655Z,10.00
2023-05-25T02:13:46.778Z,10.00
2023-05-25T02:16:16.180Z,9.90
2023-05-25T02:18:45.940Z,9.90
2023-05-25T02:21:13.011Z,9.90
2023-05-25T02:23:39.975Z,9.90
2023-05-25T02:26:06.816Z,9.80
2023-05-25T02:28:34.184Z,9.80
2023-05-25T02:31:03.059Z,9.80
2023-05-25T02:33:30.021Z,9.80
2023-05-25T02:35:57.842Z,9.70
2023-05-25T02:38:24.804Z,9.70
2023-05-25T02:40:53.067Z,9.70
2023-05-25T02:43:21.003Z,9.70
2023-05-25T02:45:47.908Z,9.60
2023-05-25T02:48:14.809Z,9.60
2023-05-25T02:50:42.097Z,9.60
2023-05-25T02:53:12.900Z,9.50
2023-05-25T02:55:40.636Z,9.50
2023-05-25T02:58:10.415Z,9.50
2023-05-25T03:01:18.749Z,9.40
2023-05-25T03:03:52.577Z,9.40
2023-05-25T03:06:23.583Z,9.30
2023-05-25T03:08:55.118Z,9.30
2023-05-25T03:11:22.692Z,9.30
2023-05-25T03:13:51.695Z,9.30
2023-05-25T03:16:20.329Z,9.20
2023-05-25T03:18:47.804Z,9.20
2023-05-25T03:21:14.689Z,9.20
2023-05-25T03:23:41.597Z,9.10
2023-05-25T03:26:09.008Z,9.10
2023-05-25T03:28:35.958Z,9.10
2023-05-25T03:31:02.871Z,9.10
2023-05-25T03:33:29.765Z,9.10
2023-05-25T03:35:56.678Z,9.10
2023-05-25T03:38:23.616Z,9.00
2023-05-25T03:40:50.522Z,9.10
2023-05-25T03:43:17.617Z,9.00
2023-05-25T03:45:47.505Z,9.00
2023-05-25T03:48:14.657Z,9.00
2023-05-25T03:50:41.870Z,9.10
2023-05-25T03:53:08.778Z,9.10
2023-05-25T03:55:35.743Z,9.10
2023-05-25T03:58:02.666Z,9.10
2023-05-25T04:00:29.570Z,9.10
2023-05-25T04:02:57.077Z,9.00
2023-05-25T04:05:24.382Z,9.10
2023-05-25T04:07:52.174Z,9.10
2023-05-25T04:10:19.054Z,9.10
2023-05-25T04:12:45.951Z,9.10
2023-05-25T04:15:14.485Z,9.10
2023-05-25T04:18:03.179Z,9.10
2023-05-25T04:20:30.794Z,9.10
2023-05-25T04:22:57.988Z,9.10
2023-05-25T04:25:27.264Z,9.10
2023-05-25T04:27:56.859Z,9.10
2023-05-25T04:30:44.244Z,9.20
2023-05-25T04:33:40.779Z,9.20
2023-05-25T04:36:24.037Z,9.20
2023-05-25T04:38:52.281Z,9.30
2023-05-25T04:41:19.645Z,9.30
2023-05-25T04:44:05.907Z,9.30
2023-05-25T04:46:39.081Z,9.30
2023-05-25T04:49:08.645Z,9.30
2023-05-25T04:51:37.060Z,9.40
2023-05-25T04:54:04.328Z,9.40
2023-05-25T04:56:31.567Z,9.50
2023-05-25T04:58:58.880Z,9.50
2023-05-25T05:01:26.413Z,9.50
2023-05-25T05:03:56.346Z,9.50
2023-05-25T05:06:25.982Z,9.50
2023-05-25T05:08:53.142Z,9.50
2023-05-25T05:11:20.805Z,9.60
2023-05-25T05:13:48.235Z,9.60
2023-05-25T05:16:15.307Z,9.70
2023-05-25T05:18:42.173Z,9.80
2023-05-25T05:21:09.188Z,9.80
2023-05-25T05:23:36.698Z,9.80
2023-05-25T05:26:04.972Z,9.90
2023-05-25T05:28:34.342Z,10.00
2023-05-25T05:31:01.386Z,10.00
2023-05-25T05:33:28.574Z,10.10
2023-05-25T05:35:55.490Z,10.10
2023-05-25T05:38:23.876Z,10.10
2023-05-25T05:40:51.007Z,10.20
2023-05-25T05:43:23.006Z,10.20
2023-05-25T05:45:50.051Z,10.20
2023-05-25T05:48:16.935Z,10.30
2023-05-25T05:50:44.621Z,10.40
2023-05-25T05:53:13.001Z,10.50
2023-05-25T05:55:40.060Z,10.50
2023-05-25T05:58:07.641Z,10.50
2023-05-25T06:00:34.920Z,10.60
2023-05-25T06:03:01.903Z,10.70
2023-05-25T06:05:30.475Z,10.80
2023-05-25T06:07:58.383Z,10.80
2023-05-25T06:10:25.244Z,10.90
2023-05-25T06:12:52.780Z,10.90
2023-05-25T06:15:19.949Z,11.00
2023-05-25T06:17:49.508Z,11.00
2023-05-25T06:20:17.044Z,11.10
2023-05-25T06:22:45.544Z,11.30
2023-05-25T06:25:12.363Z,11.40
2023-05-25T06:27:39.363Z,11.50
2023-05-25T06:30:07.003Z,11.70
2023-05-25T06:32:35.729Z,11.80
2023-05-25T06:35:02.904Z,11.90
2023-05-25T06:37:35.453Z,12.00
2023-05-25T06:40:05.218Z,12.10
2023-05-25T06:42:32.276Z,12.20
2023-05-25T06:45:02.366Z,12.20
2023-05-25T06:47:31.069Z,12.30
2023-05-25T06:49:58.715Z,12.40
2023-05-25T06:52:28.221Z,12.40
2023-05-25T06:54:56.370Z,12.50
2023-05-25T06:57:23.878Z,12.60
2023-05-25T06:59:50.822Z,12.60
2023-05-25T07:02:18.894Z,12.70
2023-05-25T07:04:45.929Z,12.80
2023-05-25T07:07:14.093Z,12.90
2023-05-25T07:09:41.690Z,12.90
2023-05-25T07:12:10.038Z,13.00
2023-05-25T07:14:37.999Z,13.10
2023-05-25T07:17:05.049Z,13.20
2023-05-25T07:19:32.004Z,13.40
2023-05-25T07:21:58.961Z,13.50
2023-05-25T07:24:25.804Z,13.60
2023-05-25T07:26:52.649Z,13.70
2023-05-25T07:29:19.620Z,13.70
2023-05-25T07:31:48.642Z,13.80
2023-05-25T07:34:15.590Z,13.80
2023-05-25T07:36:42.462Z,13.90
2023-05-25T07:39:11.254Z,14.10
2023-05-25T07:41:38.680Z,14.30
2023-05-25T07:44:05.756Z,14.40
2023-05-25T07:46:32.784Z,14.50
2023-05-25T07:48:59.736Z,14.40
2023-05-25T07:51:29.595Z,14.40
2023-05-25T07:53:57.316Z,14.30
2023-05-25T07:56:24.685Z,14.30
2023-05-25T07:58:51.634Z,14.40
2023-05-25T08:01:18.903Z,14.40
2023-05-25T08:03:49.509Z,14.50
2023-05-25T08:06:17.002Z,14.50
2023-05-25T08:08:44.986Z,14.60
2023-05-25T08:11:12.312Z,14.80
2023-05-25T08:13:39.453Z,14.80
2023-05-25T08:16:06.497Z,14.90
2023-05-25T08:18:33.383Z,14.90
2023-05-25T08:21:00.289Z,14.90
2023-05-25T08:23:28.288Z,14.90
2023-05-25T08:25:55.243Z,14.90
2023-05-25T08:28:24.969Z,15.00
2023-05-25T08:30:51.924Z,15.20
2023-05-25T08:33:18.813Z,15.10
2023-05-25T08:35:45.916Z,15.20
2023-05-25T08:38:12.963Z,15.20
2023-05-25T08:40:43.267Z,15.40
2023-05-25T08:43:10.559Z,15.50
2023-05-25T08:45:39.964Z,15.60
2023-05-25T08:48:23.796Z,15.70
2023-05-25T08:51:10.809Z,15.80
2023-05-25T08:53:40.089Z,16.00
2023-05-25T08:56:26.369Z,16.20
2023-05-25T08:59:16.858Z,16.20
2023-05-25T09:01:48.632Z,16.30
2023-05-25T09:04:17.873Z,16.30
2023-05-25T09:06:57.186Z,16.60
2023-05-25T09:09:24.637Z,16.80
2023-05-25T09:11:55.084Z,16.90
2023-05-25T09:14:22.706Z,16.80
2023-05-25T09:16:50.751Z,16.70
2023-05-25T09:19:19.026Z,16.60
2023-05-25T09:21:45.956Z,16.60
2023-05-25T09:24:13.045Z,16.90
2023-05-25T09:26:40.125Z,17.00
2023-05-25T09:29:06.970Z,17.00
2023-05-25T09:31:34.446Z,16.90
2023-05-25T09:34:01.711Z,16.70
2023-05-25T09:36:29.115Z,16.70
2023-05-25T09:38:56.735Z,16.60
2023-05-25T09:41:24.770Z,16.70
2023-05-25T09:44:02.046Z,17.20
2023-05-25T09:46:39.222Z,17.60
2023-05-25T09:49:09.182Z,17.60
2023-05-25T09:51:36.973Z,17.70
2023-05-25T09:54:04.885Z,17.60
2023-05-25T09:56:35.784Z,17.90
2023-05-25T09:59:03.388Z,18.30
2023-05-25T10:01:32.813Z,18.10
2023-05-25T10:04:04.915Z,18.10
2023-05-25T10:06:33.713Z,18.00
2023-05-25T10:09:01.326Z,17.80
2023-05-25T10:11:29.195Z,17.70
2023-05-25T10:13:56.732Z,17.50
2023-05-25T10:16:29.658Z,17.40
2023-05-25T10:19:42.791Z,17.20
2023-05-25T10:22:16.628Z,17.10
2023-05-25T10:24:57.019Z,17.00
2023-05-25T10:27:27.620Z,16.90
2023-05-25T10:29:57.230Z,17.00
2023-05-25T10:32:24.909Z,17.20
2023-05-25T10:34:53.374Z,17.50
2023-05-25T10:37:20.724Z,17.70
2023-05-25T10:39:49.934Z,17.90
2023-05-25T10:42:18.904Z,18.00
2023-05-25T10:44:46.562Z,18.10
2023-05-25T10:47:15.255Z,18.00
2023-05-25T10:49:54.221Z,17.90
2023-05-25T10:52:21.903Z,17.80
2023-05-25T10:54:49.246Z,17.70
2023-05-25T10:57:21.490Z,17.70
2023-05-25T10:59:55.425Z,17.90
2023-05-25T11:02:23.582Z,17.90
2023-05-25T11:05:10.828Z,17.90
2023-05-25T11:07:59.593Z,18.00
2023-05-25T11:10:48.014Z,18.10
2023-05-25T11:13:32.725Z,18.30
2023-05-25T11:16:20.658Z,18.40
2023-05-25T11:18:51.961Z,18.40
2023-05-25T11:21:22.021Z,18.40
2023-05-25T11:24:06.861Z,18.30
2023-05-25T11:26:34.799Z,18.20
2023-05-25T11:29:13.027Z,18.20
2023-05-25T11:31:43.328Z,18.00
2023-05-25T11:34:12.200Z,18.00
2023-05-25T11:36:39.367Z,18.00
2023-05-25T11:39:17.246Z,18.10
2023-05-25T11:41:52.244Z,18.10
2023-05-25T11:44:31.029Z,18.20
2023-05-25T11:47:02.091Z,18.50
2023-05-25T11:49:29.501Z,18.60
2023-05-25T11:51:59.701Z,18.60
2023-05-25T11:54:30.655Z,18.40
2023-05-25T11:57:00.008Z,18.30
2023-05-25T11:59:30.705Z,18.30
2023-05-25T12:02:00.699Z,18.60
2023-05-25T12:04:28.783Z,19.10
2023-05-25T12:07:03.559Z,19.30
2023-05-25T12:09:30.797Z,19.20
2023-05-25T12:11:58.167Z,19.10
2023-05-25T12:14:25.471Z,19.30
2023-05-25T12:16:53.026Z,19.60
2023-05-25T12:19:21.074Z,19.80
2023-05-25T12:21:51.333Z,20.00
2023-05-25T12:24:21.326Z,20.20
2023-05-25T12:26:57.763Z,20.10
2023-05-25T12:29:26.284Z,19.70
2023-05-25T12:31:53.323Z,19.90
2023-05-25T12:34:20.904Z,20.10
2023-05-25T12:36:52.912Z,20.30
2023-05-25T12:39:32.081Z,20.20
2023-05-25T12:42:00.566Z,20.10
2023-05-25T12:44:31.446Z,19.90
2023-05-25T12:47:17.263Z,19.60
2023-05-25T12:49:45.705Z,19.30
2023-05-25T12:52:35.575Z,19.10
2023-05-25T12:55:21.066Z,19.00
2023-05-25T12:57:52.478Z,19.20
2023-05-25T13:00:21.018Z,19.20
2023-05-25T13:02:50.200Z,19.30
2023-05-25T13:05:28.224Z,19.20
2023-05-25T13:07:56.312Z,19.30
2023-05-25T13:10:25.044Z,19.60
2023-05-25T13:12:54.080Z,19.80
2023-05-25T13:15:21.903Z,19.80
2023-05-25T13:17:52.901Z,20.00
2023-05-25T13:20:24.932Z,19.70
2023-05-25T13:22:53.203Z,19.70
2023-05-25T13:25:22.168Z,19.60
2023-05-25T13:27:51.257Z,19.60
2023-05-25T13:30:23.045Z,19.50
2023-05-25T13:32:51.658Z,19.60
2023-05-25T13:35:23.110Z,19.40
2023-05-25T13:37:51.036Z,19.70
2023-05-25T13:40:18.257Z,20.10
2023-05-25T13:42:45.195Z,20.20
2023-05-25T13:45:11.978Z,20.10
2023-05-25T13:47:39.080Z,19.80
2023-05-25T13:50:07.100Z,19.80
2023-05-25T13:52:34.154Z,19.80
2023-05-25T13:55:01.429Z,19.80
2023-05-25T13:57:28.290Z,19.60
2023-05-25T13:59:55.160Z,19.50
2023-05-25T14:02:22.120Z,19.40
2023-05-25T14:04:48.941Z,19.40
2023-05-25T14:07:15.917Z,19.30
2023-05-25T14:09:43.063Z,19.40
2023-05-25T14:12:13.550Z,19.70
2023-05-25T14:14:41.065Z,20.00
2023-05-25T14:17:08.079Z,20.10
2023-05-25T14:19:35.388Z,20.20
2023-05-25T14:24:32.141Z,20.00
2023-05-25T14:26:59.181Z,19.70
2023-05-25T14:29:26.092Z,19.70
2023-05-25T14:31:53.303Z,19.90
2023-05-25T14:34:20.370Z,19.70
2023-05-25T14:36:47.128Z,19.70
2023-05-25T14:39:17.016Z,19.70
2023-05-25T14:41:44.249Z,19.90
2023-05-25T14:44:11.524Z,19.80
2023-05-25T14:46:38.466Z,19.80
2023-05-25T14:49:05.305Z,20.00
2023-05-25T14:51:32.118Z,20.20
2023-05-25T14:54:01.305Z,20.40
2023-05-25T14:56:28.441Z,20.50
2023-05-25T14:58:55.245Z,20.70
2023-05-25T15:01:25.069Z,20.80
2023-05-25T15:03:53.025Z,20.80
2023-05-25T15:06:20.113Z,20.90
2023-05-25T15:08:49.406Z,21.00
2023-05-25T15:11:16.377Z,21.00
2023-05-25T15:13:43.392Z,21.10
2023-05-25T15:16:17.462Z,21.10
2023-05-25T15:18:45.346Z,21.00
2023-05-25T15:21:12.367Z,21.00
2023-05-25T15:23:39.456Z,21.10
2023-05-25T15:26:08.353Z,21.20
2023-05-25T15:28:35.378Z,21.20
2023-05-25T15:31:03.293Z,21.30
2023-05-25T15:33:48.538Z,21.20
2023-05-25T15:36:19.109Z,21.30
2023-05-25T15:38:49.433Z,21.10
2023-05-25T15:41:17.333Z,21.00
2023-05-25T15:43:58.171Z,21.00
2023-05-25T15:46:25.816Z,20.90
2023-05-25T15:48:53.362Z,20.90
2023-05-25T15:51:21.074Z,20.70
2023-05-25T15:53:48.236Z,20.60
2023-05-25T15:56:15.169Z,20.50
2023-05-25T15:58:42.022Z,20.40
2023-05-25T16:01:09.692Z,20.40
2023-05-25T16:03:37.694Z,20.30
2023-05-25T16:06:04.684Z,20.40
2023-05-25T16:08:31.482Z,20.40
2023-05-25T16:10:58.280Z,20.40
2023-05-25T16:13:25.154Z,20.30
2023-05-25T16:15:52.137Z,20.30
2023-05-25T16:18:19.119Z,20.20
2023-05-25T16:20:46.173Z,20.10
2023-05-25T16:23:14.719Z,20.10
2023-05-25T16:25:41.504Z,20.10
2023-05-25T16:28:08.338Z,19.80
2023-05-25T16:30:35.225Z,19.70
2023-05-25T16:33:02.109Z,19.80
2023-05-25T16:35:28.907Z,19.80
2023-05-25T16:37:56.374Z,19.70
2023-05-25T16:40:23.227Z,19.60
2023-05-25T16:42:50.007Z,19.50
2023-05-25T16:45:16.850Z,19.40
2023-05-25T16:47:43.928Z,19.40
2023-05-25T16:50:11.039Z,19.30
2023-05-25T16:52:37.982Z,19.20
2023-05-25T16:55:05.439Z,19.40
2023-05-25T16:57:32.295Z,19.40
2023-05-25T16:59:59.275Z,19.30
2023-05-25T17:02:26.222Z,19.20
2023-05-25T17:04:53.251Z,19.10
2023-05-25T17:07:20.166Z,19.00
2023-05-25T17:09:47.082Z,18.90
2023-05-25T17:12:13.999Z,18.80
2023-05-25T17:14:40.906Z,18.70
2023-05-25T17:17:07.782Z,18.70
2023-05-25T17:19:34.895Z,18.70
2023-05-25T17:22:01.901Z,18.50
2023-05-25T17:24:28.851Z,18.30
2023-05-25T17:26:55.871Z,18.20
2023-05-25T17:29:22.757Z,18.30
2023-05-25T17:31:50.154Z,18.30
2023-05-25T17:34:17.412Z,18.20
2023-05-25T17:36:44.436Z,18.30
2023-05-25T17:39:11.675Z,18.20
2023-05-25T17:41:38.756Z,18.20
2023-05-25T17:44:05.829Z,18.10
2023-05-25T17:46:32.948Z,18.00
2023-05-25T17:48:59.918Z,18.00
2023-05-25T17:51:27.003Z,17.80
2023-05-25T17:53:54.361Z,17.80
2023-05-25T17:56:22.233Z,17.70
2023-05-25T17:58:49.387Z,17.60
2023-05-25T18:01:16.459Z,17.60
2023-05-25T18:03:43.598Z,17.60
2023-05-25T18:06:10.870Z,17.50
2023-05-25T18:08:37.808Z,17.40
2023-05-25T18:11:05.424Z,17.30
2023-05-25T18:13:32.561Z,17.20
2023-05-25T18:16:06.156Z,17.10
2023-05-25T18:18:33.238Z,17.10
2023-05-25T18:21:00.580Z,16.90
2023-05-25T18:23:27.452Z,16.90
2023-05-25T18:25:54.314Z,16.80
2023-05-25T18:28:21.168Z,16.70
2023-05-25T18:30:48.097Z,16.60
2023-05-25T18:33:15.381Z,16.50
2023-05-25T18:35:42.536Z,16.40
2023-05-25T18:38:09.879Z,16.40
2023-05-25T18:40:36.795Z,16.30
2023-05-25T18:43:03.712Z,16.20
2023-05-25T18:45:30.732Z,16.10
2023-05-25T18:47:57.968Z,16.10
2023-05-25T18:50:24.887Z,16.00
2023-05-25T18:52:52.122Z,15.90
2023-05-25T18:55:19.245Z,15.90
2023-05-25T18:57:46.573Z,15.80
2023-05-25T19:00:14.235Z,15.70
2023-05-25T19:02:41.263Z,15.70
2023-05-25T19:05:11.308Z,15.60
2023-05-25T19:07:54.751Z,15.50
2023-05-25T19:10:25.800Z,15.40
2023-05-25T19:12:52.744Z,15.40
2023-05-25T19:15:20.166Z,15.30
2023-05-25T19:17:47.289Z,15.30
2023-05-25T19:20:14.576Z,15.20
2023-05-25T19:22:41.912Z,15.10
2023-05-25T19:25:08.887Z,15.00
2023-05-25T19:27:35.881Z,14.80
2023-05-25T19:30:02.788Z,14.80
2023-05-25T19:32:29.667Z,14.70
2023-05-25T19:34:56.896Z,14.60
2023-05-25T19:37:23.889Z,14.60
2023-05-25T19:39:50.741Z,14.60
2023-05-25T19:42:17.685Z,14.60
2023-05-25T19:44:45.871Z,14.40
2023-05-25T19:47:12.847Z,14.30
2023-05-25T19:49:39.778Z,14.40
2023-05-25T19:52:06.918Z,14.20
2023-05-25T19:54:33.999Z,14.10
2023-05-25T19:57:00.932Z,14.10
2023-05-25T19:59:30.134Z,14.10
2023-05-25T20:01:57.120Z,14.00
2023-05-25T20:04:27.038Z,14.00
2023-05-25T20:06:54.305Z,13.90
2023-05-25T20:09:30.069Z,13.80
2023-05-25T20:11:58.755Z,13.80
2023-05-25T20:14:32.127Z,13.70
2023-05-25T20:16:59.159Z,13.60
2023-05-25T20:19:26.260Z,13.60
2023-05-25T20:21:53.216Z,13.60
2023-05-25T20:24:20.197Z,13.50
2023-05-25T20:26:47.013Z,13.50
2023-05-25T20:29:14.925Z,13.30
2023-05-25T20:31:42.353Z,13.20
2023-05-25T20:34:09.360Z,13.10
2023-05-25T20:36:36.608Z,13.10
2023-05-25T20:39:03.549Z,13.00
2023-05-25T20:41:30.633Z,13.00
2023-05-25T20:43:58.065Z,13.00
2023-05-25T20:46:26.512Z,13.00
2023-05-25T20:48:53.603Z,12.80
2023-05-25T20:51:21.896Z,12.90
2023-05-25T20:53:48.861Z,12.80
2023-05-25T20:56:16.036Z,12.70
2023-05-25T20:58:43.022Z,12.70
2023-05-25T21:01:09.894Z,12.70
2023-05-25T21:03:36.972Z,12.70
2023-05-25T21:06:03.956Z,12.60
2023-05-25T21:08:31.965Z,12.60
2023-05-25T21:10:59.819Z,12.50
2023-05-25T21:13:26.702Z,12.50
2023-05-25T21:15:53.558Z,12.50
2023-05-25T21:18:20.436Z,12.30
2023-05-25T21:20:47.261Z,12.30
2023-05-25T21:23:14.117Z,12.20
2023-05-25T21:25:41.017Z,12.20
2023-05-25T21:28:09.241Z,12.10
2023-05-25T21:30:36.089Z,12.10
2023-05-25T21:33:02.985Z,12.10
2023-05-25T21:35:29.839Z,12.00
2023-05-25T21:37:56.635Z,12.00
2023-05-25T21:40:23.590Z,12.00
2023-05-25T21:42:53.411Z,11.90
2023-05-25T21:45:20.626Z,11.90
2023-05-25T21:47:47.806Z,11.80
2023-05-25T21:50:14.893Z,11.80
2023-05-25T21:52:41.892Z,11.90
2023-05-25T21:55:09.170Z,11.70
2023-05-25T21:57:36.372Z,11.60
2023-05-25T22:00:04.370Z,11.60
2023-05-25T22:02:39.608Z,11.50
2023-05-25T22:05:07.138Z,11.50
2023-05-25T22:07:33.969Z,11.40
2023-05-25T22:10:00.821Z,11.50
2023-05-25T22:12:27.684Z,11.50
2023-05-25T22:14:54.677Z,11.40
2023-05-25T22:17:21.508Z,11.40
2023-05-25T22:19:59.022Z,11.40
2023-05-25T22:22:33.235Z,11.30
2023-05-25T22:25:00.212Z,11.20
2023-05-25T22:27:27.096Z,11.20
2023-05-25T22:29:53.937Z,11.20
2023-05-25T22:32:20.884Z,11.20
2023-05-25T22:34:47.906Z,11.10
2023-05-25T22:37:14.730Z,11.10
2023-05-25T22:39:41.562Z,11.00
2023-05-25T22:42:08.566Z,11.10
2023-05-25T22:44:36.437Z,11.10
2023-05-25T22:47:03.774Z,11.00
2023-05-25T22:49:30.760Z,11.00
2023-05-25T22:51:57.661Z,10.90
2023-05-25T22:54:24.594Z,10.90
2023-05-25T22:56:51.727Z,10.80
2023-05-25T22:59:18.989Z,10.80
2023-05-25T23:01:46.168Z,10.80
2023-05-25T23:04:13.062Z,10.80
2023-05-25T23:06:39.935Z,10.80
2023-05-25T23:09:06.859Z,10.80
2023-05-25T23:11:33.689Z,10.70
2023-05-25T23:14:03.252Z,10.70
2023-05-25T23:16:30.096Z,10.80
2023-05-25T23:18:59.491Z,10.60
2023-05-25T23:21:26.252Z,10.60
2023-05-25T23:23:53.140Z,10.60
2023-05-25T23:26:19.949Z,10.50
2023-05-25T23:28:46.858Z,10.60
2023-05-25T23:31:13.774Z,10.50
2023-05-25T23:33:40.755Z,10.40
2023-05-25T23:36:08.267Z,10.40
2023-05-25T23:38:35.179Z,10.40
2023-05-25T23:41:02.177Z,10.40
2023-05-25T23:43:29.026Z,10.30
2023-05-25T23:45:56.037Z,10.20
2023-05-25T23:48:22.870Z,10.20
2023-05-25T23:50:49.730Z,10.10
2023-05-25T23:53:16.610Z,10.20
2023-05-25T23:55:43.760Z,10.10
2023-05-25T23:58:11.072Z,10.10
